METAR Data
IDs: Format: Raw Decoded Include TAF

Data at: 0158 UTC 19 Oct 2021

PASH 190056Z AUTO 10013KT 10SM CLR M04/M07 A2961 RMK AO2 SLP026 T10391072 FZRANO
PASH 182356Z AUTO 12013KT 10SM CLR M04/M07 A2965 RMK AO2 SLP041 T10391067 11039 21050 56027 FZRANO
PASH 182256Z AUTO 12013KT 10SM CLR M04/M07 A2968 RMK AO2 SLP050 T10441072 FZRANO
PASH 182156Z AUTO 12012KT 10SM CLR M04/M07 A2970 RMK AO2 SLP059 T10391072 FZRANO
PASH 182056Z AUTO 12011KT 10SM CLR M05/M07 A2973 RMK AO2 SLP068 T10501072 58016 FZRANO
PASH 181956Z AUTO 12009KT 10SM CLR M05/M08 A2975 RMK AO2 SLP075 T10501078 FZRANO
PASH 181856Z AUTO 13010KT 10SM CLR M05/M08 A2977 RMK AO2 SLP081 T10501083 FZRANO
PASH 181756Z AUTO 12009KT 10SM CLR M04/M08 A2978 RMK AO2 SLP084 T10441083 11033 21050 58019 FZRANO
PASH 181703Z AUTO 12008KT 10SM SCT028 M05/M09 A2980 RMK AO2 FZRANO
PASH 181656Z AUTO 11007KT 10SM BKN028 M04/M09 A2980 RMK AO2 SLP092 T10441089 FZRANO
PASH 181556Z AUTO 12008KT 10SM OVC028 M04/M08 A2982 RMK AO2 SLP099 T10391083 FZRANO
PASH 181506Z AUTO 13005KT 10SM OVC028 M03/M08 A2983 RMK AO2 FZRANO
PASH 181456Z AUTO 12005KT 10SM OVC030 M03/M09 A2983 RMK AO2 SLP103 T10331089 58011 FZRANO
PASH 181356Z AUTO 11007KT 10SM OVC032 M03/M08 A2985 RMK AO2 SLP109 T10331083 FZRANO
PASH 181256Z AUTO 12005KT 10SM OVC032 M03/M09 A2985 RMK AO2 SLP110 T10331089 FZRANO
PASH 181156Z AUTO 10008KT 10SM OVC030 M03/M08 A2986 RMK AO2 SLP113 T10331078 11028 21033 58003 FZRANO
PASH 181056Z AUTO 02004KT 10SM OVC030 M03/M08 A2987 RMK AO2 SLP115 T10281083 FZRANO
PASH 180956Z AUTO 31005KT 10SM OVC030 M03/M08 A2987 RMK AO2 SLP117 T10331083 FZRANO
PASH 180856Z AUTO 32005KT 10SM OVC032 M03/M09 A2987 RMK AO2 SLP116 T10331089 410221039 51000 FZRANO
PASH 180756Z AUTO 34014KT 10SM OVC030 M03/M08 A2987 RMK AO2 SLP116 T10331078 FZRANO
PASH 180710Z AUTO 35010G19KT 10SM OVC030 M03/M08 A2988 RMK AO2 FZRANO
PASH 180656Z AUTO 36011KT 10SM OVC028 M03/M08 A2988 RMK AO2 SLP118 T10281078 FZRANO
PASH 180556Z AUTO 02012G21KT 10SM BKN028 M03/M08 A2987 RMK AO2 SLP116 60000 T10331078 11022 21033 53005 FZRANO
PASH 180456Z AUTO 36017G24KT 10SM OVC028 M03/M08 A2987 RMK AO2 PK WND 01026/0402 SLP114 T10281078 FZRANO
PASH 180356Z AUTO 36020KT 10SM OVC030 M03/M07 A2986 RMK AO2 SLP111 T10281072 FZRANO
PASH 180256Z AUTO 36021KT 10SM OVC028 M03/M07 A2985 RMK AO2 PK WND 01027/0253 SNB14E24 SLP109 P0000 60000 T10281072 53008 FZRANO
PASH 180156Z AUTO 36020G26KT 10SM OVC024 M03/M07 A2984 RMK AO2 PK WND 36027/0114 SLP105 T10281067 FZRANO
PASH 180056Z AUTO 36021G26KT 10SM OVC026 M03/M07 A2983 RMK AO2 PK WND 36027/0046 SNE01B20E49 SLP101 P0000 T10281067 FZRANO
PASH 172356Z AUTO 01021KT 9SM -SN OVC024 M03/M06 A2983 RMK AO2 PK WND 01026/2328 SNB36 SLP101 P0000 60000 T10281061 11022 21028 53011 FZRANO
PASH 172256Z AUTO 01019KT 10SM OVC028 M03/M07 A2982 RMK AO2 PK WND 01028/2158 SLP098 T10281067 FZRANO
PASH 172156Z AUTO 36020G26KT 10SM OVC026 M03/M07 A2980 RMK AO2 PK WND 36027/2151 SNB33E43 SLP092 P0000 T10281067 FZRANO
PASH 172056Z AUTO 01021KT 10SM BKN028 OVC033 M03/M07 A2979 RMK AO2 PK WND 01026/2032 SLP089 60000 T10281072 51010 FZRANO
PASH 171956Z AUTO 01019KT 10SM OVC026 M03/M07 A2979 RMK AO2 SNB02E14 SLP088 P0000 T10281072 FZRANO
PASH 171856Z AUTO 36014G22KT 10SM OVC026 M03/M07 A2978 RMK AO2 SLP083 T10281067 FZRANO
PASH 171756Z AUTO 01014KT 10SM OVC026 M03/M07 A2976 RMK AO2 SLP079 60000 T10281072 11022 21033 53009 FZRANO
PASH 171710Z AUTO 02015KT 10SM BKN028 BKN032 M02/M07 A2975 RMK AO2 FZRANO
PASH 171656Z AUTO 02015KT 10SM BKN030 M02/M07 A2975 RMK AO2 SLP076 T10221067 FZRANO
PASH 171647Z AUTO 03015KT 10SM OVC030 M03/M07 A2975 RMK AO2 FZRANO
PASH 171556Z AUTO 36018G24KT 9SM OVC026 M02/M06 A2974 RMK AO2 SNB14E52 SLP072 P0000 T10221061 FZRANO
PASH 171533Z AUTO 01017KT 9SM -SN OVC028 M02/M06 A2974 RMK AO2 SNB14 P0000 FZRANO
PASH 171456Z AUTO 02016KT 10SM OVC030 M02/M07 A2974 RMK AO2 SLP070 T10221067 53006 FZRANO